Avoca, MI

9:35 AM EDT on October 21, 2014 (GMT -0400)
Ice Station Z | Change Station
CLOSE
Current Station
Personal Weather Station
Location: Greenwood Twp., MI
Elevation: 755 ft
Nearby Weather Stations

Elev 755 ft 43.15 °N, 82.70 °W | Updated 42 seconds ago

Overcast
Overcast
44.6 °F
Feels Like 39 °F
N
12.0
Wind Variable Wind from WNW
Gusts 12.0 mph

Today
High -- | Low -- °F
--% Chance of Precip.
Yesterday
High -- | Low -- °F
Precip. -- in
7:51 AM 6:38 PM
Waning Crescent, 5% visible
Pressure 29.97 in
Visibility 10.0 miles
Clouds Overcast 1900 ft
Windchill 39 °F
Dew Point 39 °F
Humidity 82%
Rainfall 0.00 in
Snow Depth Not available.
UV 16.0 out of 12
Pollen 1.00 out of 12
Ozone Good
PM2.5 Good
Flu Activity Sporadic
METAR KPHN 211316Z AUTO 34011G17KT 10SM OVC019 08/05 A2997 RMK AO2

More Conditions Fewer Conditions

Pressure 29.97 in
Visibility 10.0 miles
Clouds Overcast 1900 ft
Windchill 39 °F
Dew Point 39 °F
Humidity 82%
Rainfall 0.00 in
Snow Depth Not available.
UV 16.0 out of 12
Pollen 1.00 out of 12
Ozone Good
PM2.5 Good
Flu Activity Sporadic
METAR KPHN 211316Z AUTO 34011G17KT 10SM OVC019 08/05 A2997 RMK AO2

More Conditions Fewer Conditions

10-Day Weather Forecast

Almanac

Astronomy

Oct. 21, 2014 Rise Set
Actual Time 7:51 AM EDT 6:38 PM EDT
Civil Twilight 7:22 AM EDT 7:07 PM EDT
Nautical Twilight 6:49 AM EDT 7:40 PM EDT
Astronomical Twilight 6:16 AM EDT 8:13 PM EDT
Moon 5:31 AM EDT 5:34 PM EDT
Length of Visible Light 11h 44m
Length of Day
10h 46m
Tomorrow will be 2m 45s shorter.
Waning Crescent, 5% of the Moon is Illuminated
Today
Waning Crescent
Oct 23
New
Oct 30
First Quarter
Nov 6
Full
Nov 14
Last Quarter

Today's Extremes

State Highs State Lows

Community

WunderPhotos

Upload Photos

1,763,662 photos uploaded!

Nearby

Air Quality

  Air Quality AQ Index Pollutant
Yesterday Good
PM10
Yesterday Good
OZONE
Current Good
PM2.5
Current Good
OZONE
Tuesday Good
PM2.5
Wednesday Good
PM2.5
Thursday Good
PM2.5
Friday Good
PM2.5
Saturday Good
PM2.5

Snow Depth

Station Depth Elevation
No new snow has been reported.

Earthquake Activity

City Distance Mag. Time & Date
No recent earthquake activity has been reported nearby.
Minimum magnitude displayed is 2.5.

Coastal Water Temperatures

Place Temperature
Harbor Beach, MI 50.0 °F

Nearby Weather Stations